Aérodrome :
LOGIN :

S'inscrire | Disclaimer

   EN    FR    IT 

 










Légende :    VFR   VFR Marginal   IFR   IFR Intensif   IFR Très Intensif
Visi : 
Plafond : 
>= 8 km
>= 3000ft
5 à 8 km
1000 à 3000 ft
1500m à 5 km
500 à 1000 ft
800 à 1500m
200 à 500 ft
< 800m
< 200 ft
Symboles :   Orages  Brouillard  Fortes neiges  Fortes précipitations  Vent > 20 kt
SIGMETs :   Divers  Orages  Givrage  Turbulence  Onde Orograph.  Cendres Volcan.






- Altitude de l'aérodrome : 188 ft
- Code IATA : ORB


ESOE - Örebro

DERNIER METAR :
  • 111350Z AUTO 30011KT 9999 R01///// R19/P2000N -RA FEW038/// SCT072/// 17/11 Q1012 RERA

METARs EXPIRÉS :
  • 111320Z AUTO 31007KT 260V350 9999 R01///// R19/P2000N FEW019/// BKN045/// 17/11 Q1011 RERA
  • 111250Z AUTO 31007KT 260V340 9999 R01///// R19/P2000N SCT066/// 17/12 Q1011
  • 111220Z AUTO 27009KT 210V330 9999 R01///// R19/P2000N RA FEW037/// SCT051/// 18/11 Q1010
  • 111150Z AUTO 24008KT 9999 R01///// R19/P2000N FEW130/// 18/11 Q1010
  • 111120Z AUTO VRB05KT 9999 R01///// R19/P2000N FEW092/// 19/10 Q1010

Prévision TAF périmée.



MET'MAP, la Météo Aéronautique d'un coup d'oeil ! - Copyright ORBIFLY Décembre 2007 - Disclaimer

ORBIFLY MET'MAP TEAM :

Programmation & Développement : Alexandra Zaïnal
Sur une idée originale de : Baudouin d'Aumeries
Assistance à la programmation : Marc-Olivier Méhu
Soutien technique & logistique : Manuel Goepfert

Contact : metmap@orbifly.com




SOURCES & CREDITS :

   NOAA